Airfield :
LOGIN :

Register | Disclaimer

   EN    FR    IT 

 










Legend :    VFR   Marginal VFR   IFR   Intensive IFR   Very Intensive IFR
Visi :
Ceiling :
>= 8 km
>= 3000ft
5 to 8 km
1000 to 3000 ft
1500m to 5 km
500 to 1000 ft
800 to 1500m
200 to 500 ft
< 800m
< 200 ft
Symbols :   Thunderstorms  Fog  Heavy snow  Heavy precipitations  Wind > 20 kt
SIGMETs :     Misc.  Thunderstorms  Icing  Turbulence  Mountain Waves  Volcanic Ashes






- Airport Elevation : 844 ft
- IATA code : OSR


LKMT - Ostrava-Mosnov

CURRENT METAR :
  • 260730Z 23014KT 4000 BR OVC005 M02/M02 Q1021 TEMPO 6000 NSW

EXPIRED METARs :
  • 260700Z 23017KT 4000 BR OVC004 M02/M02 Q1021 TEMPO 6000 NSW
  • 260630Z 23015KT 3500 BR OVC004 M02/M02 Q1021 TEMPO 2500 BR
  • 260611Z 23013KT 4500 BR OVC004 M02/M02 Q1021 RMK REG QNH 1017
  • 260600Z 22013KT 7000 OVC006 M02/M03 Q1021 NOSIG
  • 260530Z 22016KT 7000 OVC006 M02/M03 Q1021 NOSIG
  • 260500Z 23016KT 6000 OVC005 M02/M03 Q1021 TEMPO 4000 BR

TAF TAF LKMT
Valid from the 26 at 06:00 until the 27 at 12:00 UTC


260500Z 2606/2712 21010KT 6000 OVC010
TEMPO 2606/2712 23018KT
TEMPO 2606/2608 3500 BR OVC007
PROB30
TEMPO 2606/2608 OVC004
BECMG 2608/2611 9999 SCT015
BECMG 2623/2701 8000 BKN013
TEMPO 2701/2708 4000 BR BKN009



MET'MAP, your aeronautical weather chart ! - Copyright ORBIFLY December 2007 - Disclaimer

ORBIFLY MET'MAP TEAM :

Programming & Development : Alexandra Zaïnal
Concept & original design : Baudouin d'Aumeries
Assistance for programming : Marc-Olivier Méhu
Technical & hardware support : Manuel Goepfert

Contact : metmap@orbifly.com




SOURCES & CREDITS :

   NOAA